Samantha, AL

4:07 PM CST on December 17, 2014 (GMT -0600)
Grandview Drive II | Change Station
CLOSE
Current Station
Personal Weather Station
Location: Northport, AL
Elevation: 331 ft
Nearby Weather Stations

Elev 331 ft 33.38 °N, 87.60 °W | Updated 39 seconds ago

Partly Cloudy
Partly Cloudy
47.2 °F
Feels Like 47 °F
N
0.0
Wind Variable Wind from WNW
Gusts 0.0 mph

Today
High -- | Low -- °F
--% Chance of Precip.
Yesterday
High -- | Low -- °F
Precip. -- in
6:48 AM 4:45 PM
Waning Crescent, 19% visible
Pressure 30.23 in
Visibility 10.0 miles
Clouds Clear
Windchill 47 °F
Dew Point 40 °F
Humidity 75%
Rainfall 0.00 in
Snow Depth Not available.
UV 0 out of 12
Pollen 1.50 out of 12
Air Quality Not available.
Flu Activity Not available.
METAR KTCL 172153Z 03006KT 10SM CLR 10/03 A3023 RMK AO2 SLP236 T01000028

More Conditions Fewer Conditions

Pressure 30.23 in
Visibility 10.0 miles
Clouds Clear
Windchill 47 °F
Dew Point 40 °F
Humidity 75%
Rainfall 0.00 in
Snow Depth Not available.
UV 0 out of 12
Pollen 1.50 out of 12
Air Quality Not available.
Flu Activity Not available.
METAR KTCL 172153Z 03006KT 10SM CLR 10/03 A3023 RMK AO2 SLP236 T01000028

More Conditions Fewer Conditions

10-Day Weather Forecast

Almanac

Astronomy

Dec. 17, 2014 Rise Set
Actual Time
Civil Twilight
Nautical Twilight
Astronomical Twilight
Moon
Length of Visible Light
Length of Day
Tomorrow will be .
, % of the Moon is Illuminated

Today's Extremes

State Highs State Lows

Community

WunderPhotos

Upload Photos

1,778,808 photos uploaded!

WunderBlogs® & News

Nearby

Air Quality

  Air Quality AQ Index Pollutant
Not available.

Snow Depth

Station Depth Elevation

Earthquake Activity

City Distance Mag. Time & Date
Minimum magnitude displayed is 2.5.

Coastal Water Temperatures

Place Temperature

Nearby Weather Stations